Time;durP1;ratioP1;P1;durP2;ratioP2;P2;SDS_P1;SDS_P2;PMS_P1;PMS_P2;Temp;Humidity;BMP_temperature;BMP_pressure;BME280_temperature;BME280_humidity;BME280_pressure;Samples;Min_cycle;Max_cycle;Signal;HPM_P1;HPM_P2
2023/01/10 00:00:44;;;;;;;17.43;3.03;;;;;;;14.23;46.79;101237.28;5110500;28;20032;-68
2023/01/10 00:03:10;;;;;;;19.23;2.37;;;;;;;15.00;45.00;101248.94;5089975;28;20138;-67
2023/01/10 00:05:37;;;;;;;13.00;2.60;;;;;;;14.34;45.71;101255.50;5108027;28;20471;-67
2023/01/10 00:08:04;;;;;;;19.73;2.60;;;;;;;13.56;47.37;101267.34;5091045;28;20028;-67
2023/01/10 00:10:31;;;;;;;18.97;2.50;;;;;;;14.27;47.18;101265.25;5092464;28;20019;-67
2023/01/10 00:15:41;;;;;;;10.63;2.43;;;;;;;15.48;44.91;101262.78;5115909;27;20033;-67
2023/01/10 00:18:06;;;;;;;20.23;2.43;;;;;;;15.10;45.02;101268.88;5120142;27;20031;-67
2023/01/10 00:20:32;;;;;;;17.23;2.33;;;;;;;14.86;45.29;101272.03;5094568;28;20024;-66
2023/01/10 00:22:58;;;;;;;14.40;1.90;;;;;;;15.27;44.74;101265.84;5095418;28;20016;-67
2023/01/10 00:25:24;;;;;;;18.27;2.53;;;;;;;15.34;44.22;101279.75;5112714;28;20051;-66
2023/01/10 00:27:59;;;;;;;11.97;2.10;;;;;;;14.57;46.33;101283.97;5095429;28;20030;-67
2023/01/10 00:30:25;;;;;;;16.43;2.37;;;;;;;15.09;45.21;101293.47;5091143;28;20035;-67
2023/01/10 00:32:50;;;;;;;18.00;2.50;;;;;;;15.02;45.63;101297.13;5112868;28;20427;-67
2023/01/10 00:35:16;;;;;;;13.00;2.00;;;;;;;15.22;45.16;101303.75;5113058;28;20391;-67
2023/01/10 00:37:41;;;;;;;20.60;3.37;;;;;;;15.51;44.35;101308.38;5095351;28;20019;-67
2023/01/10 00:40:08;;;;;;;15.10;2.27;;;;;;;15.35;44.37;101299.94;5093252;28;20097;-67
2023/01/10 00:45:18;;;;;;;13.33;1.90;;;;;;;15.51;44.04;101310.13;5126740;27;20096;-67
2023/01/10 00:47:44;;;;;;;14.87;2.60;;;;;;;16.02;43.37;101312.44;5093714;28;20050;-67
2023/01/10 00:50:10;;;;;;;18.63;2.30;;;;;;;14.51;46.25;101316.53;5094918;28;20417;-67
2023/01/10 00:52:36;;;;;;;13.87;2.20;;;;;;;15.81;43.94;101324.38;5092579;28;20441;-67
2023/01/10 00:55:01;;;;;;;17.67;2.37;;;;;;;14.67;46.41;101311.91;5091819;28;20085;-67
2023/01/10 00:57:26;;;;;;;21.57;2.37;;;;;;;14.19;47.20;101323.25;5094573;28;20106;-67
2023/01/10 00:59:52;;;;;;;19.03;2.37;;;;;;;14.69;46.33;101320.63;5111378;27;20150;-67
2023/01/10 01:02:17;;;;;;;20.93;2.70;;;;;;;15.59;44.18;101324.88;5100513;28;20080;-67
2023/01/10 01:04:43;;;;;;;20.77;2.60;;;;;;;15.02;46.33;101326.09;5112824;28;20495;-66
2023/01/10 01:07:09;;;;;;;14.87;2.40;;;;;;;15.24;44.40;101323.88;5112818;28;20035;-67
2023/01/10 01:10:25;;;;;;;13.57;2.30;;;;;;;15.91;43.69;101319.78;5110850;28;20032;-66
2023/01/10 01:12:19;;;;;;;16.47;2.80;;;;;;;15.19;45.43;101331.00;5119517;27;20464;-67
2023/01/10 01:14:45;;;;;;;23.53;2.77;;;;;;;16.08;43.50;101325.47;5127651;27;20030;-67
2023/01/10 01:17:10;;;;;;;17.03;2.70;;;;;;;15.66;44.17;101329.97;5094362;28;20479;-67
2023/01/10 01:19:35;;;;;;;24.77;2.87;;;;;;;16.05;43.65;101328.19;5120370;27;20107;-67
2023/01/10 01:22:01;;;;;;;9.30;1.70;;;;;;;15.03;44.93;101338.38;5092903;28;20114;-67
2023/01/10 01:24:26;;;;;;;17.20;2.63;;;;;;;14.01;47.13;101353.34;5094005;28;20023;-67
2023/01/10 01:26:51;;;;;;;23.13;3.30;;;;;;;16.03;43.18;101344.94;5094162;28;20154;-67
2023/01/10 01:29:17;;;;;;;25.00;2.17;;;;;;;15.67;43.36;101342.25;5108647;28;20112;-67
2023/01/10 01:31:42;;;;;;;18.60;1.93;;;;;;;15.65;43.87;101352.84;5093994;28;20073;-67
2023/01/10 01:34:07;;;;;;;21.70;2.60;;;;;;;14.12;47.55;101365.44;5107706;27;20611;-67
2023/01/10 01:36:33;;;;;;;21.90;3.50;;;;;;;15.83;43.88;101363.91;5114195;27;20034;-67
2023/01/10 01:38:58;;;;;;;22.60;2.73;;;;;;;15.19;45.49;101372.28;5106613;27;20035;-67
2023/01/10 01:44:16;;;;;;;21.13;3.40;;;;;;;15.82;43.43;101363.00;5111117;28;20415;-67
2023/01/10 01:46:45;;;;;;;17.80;2.63;;;;;;;15.72;43.74;101364.97;5093738;28;20092;-67
2023/01/10 01:49:19;;;;;;;22.57;3.60;;;;;;;15.15;44.90;101371.47;5111874;28;20087;-67
2023/01/10 01:51:48;;;;;;;25.77;3.17;;;;;;;15.48;44.86;101373.41;5091639;28;20058;-67
2023/01/10 01:54:14;;;;;;;14.47;2.37;;;;;;;15.07;45.81;101374.25;5092556;28;20031;-66
2023/01/10 01:56:54;;;;;;;14.90;2.50;;;;;;;15.37;45.19;101382.44;5115850;27;20110;-67
2023/01/10 01:59:43;;;;;;;17.93;3.20;;;;;;;15.31;45.68;101387.81;5109488;27;20038;-67
2023/01/10 02:02:18;;;;;;;16.23;3.03;;;;;;;15.21;45.23;101396.81;5091828;28;20047;-67
2023/01/10 02:04:49;;;;;;;19.40;2.83;;;;;;;14.52;47.02;101396.31;5111048;28;20443;-67
2023/01/10 02:07:16;;;;;;;19.67;2.83;;;;;;;14.40;47.24;101407.94;5093255;28;20510;-67
2023/01/10 02:09:50;;;;;;;20.97;3.43;;;;;;;14.56;46.10;101403.25;5092591;28;20054;-66
2023/01/10 02:12:16;;;;;;;21.47;3.53;;;;;;;15.42;44.81;101401.63;5100233;27;20024;-67
2023/01/10 02:14:44;;;;;;;18.77;3.00;;;;;;;14.99;45.62;101394.59;5113742;27;20023;-67
2023/01/10 02:17:10;;;;;;;21.27;3.10;;;;;;;15.94;43.74;101393.50;5105407;28;20486;-67
2023/01/10 02:20:02;;;;;;;28.30;3.97;;;;;;;14.99;45.53;101384.09;5109750;28;20028;-67
2023/01/10 02:22:46;;;;;;;22.67;2.93;;;;;;;14.58;46.29;101397.06;5091232;28;20030;-67
2023/01/10 02:25:29;;;;;;;27.20;3.70;;;;;;;16.20;43.58;101394.66;5092093;28;20572;-67
2023/01/10 02:28:24;;;;;;;27.23;3.53;;;;;;;14.85;46.12;101389.63;5072869;28;20035;-67
2023/01/10 02:31:33;;;;;;;16.30;3.07;;;;;;;14.62;46.28;101403.16;5090710;28;20027;-67
2023/01/10 02:34:31;;;;;;;26.20;2.57;;;;;;;15.02;45.62;101397.19;5089716;28;20031;-67
2023/01/10 02:37:28;;;;;;;21.40;3.07;;;;;;;15.87;44.80;101402.47;5077644;28;20111;-67
2023/01/10 02:40:04;;;;;;;24.10;2.67;;;;;;;14.85;46.17;101405.41;5096186;28;20584;-67
2023/01/10 02:42:42;;;;;;;18.60;3.07;;;;;;;14.33;47.87;101404.53;5091762;28;20436;-67
2023/01/10 02:45:16;;;;;;;18.57;3.20;;;;;;;14.70;46.64;101414.44;5110167;28;20027;-67
2023/01/10 02:47:42;;;;;;;26.17;2.93;;;;;;;16.11;43.63;101412.44;5090748;28;20504;-67
2023/01/10 02:50:35;;;;;;;29.67;3.07;;;;;;;15.26;45.00;101410.75;5092402;28;20031;-67
2023/01/10 02:53:03;;;;;;;;;;;;;;;15.07;46.57;101416.38;5096074;27;20511;-67
2023/01/10 02:56:03;;;;;;;18.33;2.63;;;;;;;14.48;47.23;101426.19;5107704;28;19927;-67
2023/01/10 02:58:28;;;;;;;19.70;3.07;;;;;;;14.45;47.27;101416.59;5090330;28;20080;-67
2023/01/10 03:01:20;;;;;;;19.10;2.30;;;;;;;15.40;45.86;101418.34;5091804;28;20031;-67
2023/01/10 03:03:55;;;;;;;22.80;3.37;;;;;;;14.35;48.10;101431.66;5092483;28;20054;-67
2023/01/10 03:06:31;;;;;;;20.73;3.23;;;;;;;14.51;47.35;101428.78;5115220;28;20033;-67
2023/01/10 03:09:42;;;;;;;34.13;4.20;;;;;;;15.03;46.85;101432.25;5091630;28;20111;-69
2023/01/10 03:12:19;;;;;;;31.87;4.23;;;;;;;14.64;47.94;101427.69;5026412;28;20033;-69
2023/01/10 03:14:46;;;;;;;18.57;2.77;;;;;;;15.25;47.14;101435.38;5069651;28;20036;-69
2023/01/10 03:17:13;;;;;;;21.07;2.60;;;;;;;15.01;46.58;101432.28;5090842;28;20034;-69
2023/01/10 03:19:53;;;;;;;22.67;3.20;;;;;;;15.32;46.31;101436.97;5091323;28;20475;-69
2023/01/10 03:22:19;;;;;;;24.13;3.43;;;;;;;14.30;48.51;101449.28;5111854;28;20027;-69
2023/01/10 03:24:48;;;;;;;24.73;4.00;;;;;;;14.33;48.27;101449.22;5109897;28;20367;-70
2023/01/10 03:27:24;;;;;;;20.87;2.63;;;;;;;14.30;48.55;101449.28;5109264;28;20032;-70
2023/01/10 03:30:05;;;;;;;26.40;2.97;;;;;;;13.84;49.47;101455.22;5089399;28;20038;-70
2023/01/10 03:32:32;;;;;;;31.90;3.73;;;;;;;14.78;47.35;101450.28;5090074;28;20110;-69
2023/01/10 03:35:02;;;;;;;29.67;4.00;;;;;;;14.64;47.45;101454.00;5100124;28;20428;-69
2023/01/10 03:37:46;;;;;;;33.13;3.13;;;;;;;14.00;48.54;101462.00;5127207;28;20069;-70
2023/01/10 03:40:21;;;;;;;17.60;2.70;;;;;;;14.26;47.68;101463.38;5089964;28;20130;-69
2023/01/10 03:46:01;;;;;;;24.77;3.03;;;;;;;14.00;48.57;101472.50;5107547;28;20112;-69
2023/01/10 03:48:32;;;;;;;23.17;3.17;;;;;;;14.65;46.99;101471.53;5111870;28;20540;-70
2023/01/10 03:51:02;;;;;;;26.83;4.07;;;;;;;14.27;48.11;101472.97;5129251;27;20105;-69
2023/01/10 03:53:27;;;;;;;20.17;2.83;;;;;;;15.09;46.47;101472.50;5114027;28;20478;-69
2023/01/10 03:55:53;;;;;;;20.93;3.30;;;;;;;14.90;46.74;101471.09;5091907;28;20020;-70
2023/01/10 03:58:20;;;;;;;28.73;4.10;;;;;;;14.74;47.25;101484.53;5093195;28;20498;-69
2023/01/10 04:00:46;;;;;;;19.73;3.23;;;;;;;14.32;48.57;101486.06;5095949;28;20016;-69
2023/01/10 04:03:12;;;;;;;18.20;3.40;;;;;;;13.37;49.89;101497.81;5103559;27;20050;-69
2023/01/10 04:05:37;;;;;;;21.97;3.07;;;;;;;14.04;49.15;101499.59;5115027;27;20019;-69
2023/01/10 04:08:03;;;;;;;26.30;3.33;;;;;;;14.82;46.96;101499.31;5110808;28;20065;-70
2023/01/10 04:10:28;;;;;;;18.93;3.37;;;;;;;13.54;50.19;101491.50;5111819;28;20027;-70
2023/01/10 04:12:57;;;;;;;16.37;2.47;;;;;;;13.86;48.60;101500.72;5094956;28;20032;-69
2023/01/10 04:15:23;;;;;;;20.70;3.70;;;;;;;13.72;49.28;101491.28;5095125;28;20031;-69
2023/01/10 04:17:48;;;;;;;22.23;3.03;;;;;;;14.58;47.28;101491.78;5108714;27;20431;-69
2023/01/10 04:20:13;;;;;;;20.43;2.97;;;;;;;14.65;47.09;101492.59;5112421;28;20038;-69
2023/01/10 04:22:39;;;;;;;25.73;3.13;;;;;;;14.46;47.41;101499.00;5114016;28;20016;-69
2023/01/10 04:25:05;;;;;;;16.87;3.57;;;;;;;14.88;46.52;101507.13;5094660;28;20031;-70
2023/01/10 04:27:30;;;;;;;40.00;3.90;;;;;;;15.01;45.91;101523.56;5094618;28;20027;-70
2023/01/10 04:29:55;;;;;;;22.90;2.90;;;;;;;14.00;48.36;101532.06;5117970;27;20041;-70
2023/01/10 04:32:21;;;;;;;21.20;2.93;;;;;;;14.73;47.18;101522.28;5111913;27;20114;-70
2023/01/10 04:34:46;;;;;;;21.67;3.10;;;;;;;15.34;45.22;101516.81;5129205;27;20030;-69
2023/01/10 04:37:12;;;;;;;30.23;4.33;;;;;;;14.93;45.89;101513.16;5093633;28;20073;-69
2023/01/10 04:39:37;;;;;;;23.17;3.17;;;;;;;15.74;43.99;101501.97;5112774;28;20483;-69
2023/01/10 04:42:02;;;;;;;21.17;2.83;;;;;;;15.68;43.88;101502.97;5094120;28;20026;-70
2023/01/10 04:44:28;;;;;;;30.10;4.07;;;;;;;16.03;43.49;101504.03;5111173;27;20148;-70
2023/01/10 04:46:53;;;;;;;21.43;3.00;;;;;;;14.07;47.66;101516.22;5102546;28;20023;-70
2023/01/10 04:49:19;;;;;;;18.50;3.03;;;;;;;15.58;44.30;101514.63;5111940;28;20031;-70
2023/01/10 04:51:44;;;;;;;31.00;3.50;;;;;;;15.80;43.66;101512.44;5092578;28;20180;-70
2023/01/10 04:54:09;;;;;;;22.77;4.03;;;;;;;14.82;46.18;101520.38;5112064;28;20059;-70
2023/01/10 04:56:35;;;;;;;30.93;5.53;;;;;;;14.19;47.18;101541.47;5110324;27;20036;-69
2023/01/10 04:59:00;;;;;;;23.53;4.13;;;;;;;15.29;45.50;101555.56;5094692;28;20023;-70
2023/01/10 05:01:25;;;;;;;28.30;3.27;;;;;;;14.88;46.39;101557.13;5091101;28;20062;-70
2023/01/10 05:03:53;;;;;;;21.87;3.10;;;;;;;14.93;45.87;101547.38;5120010;27;20031;-70
2023/01/10 05:06:20;;;;;;;30.37;3.50;;;;;;;14.96;45.89;101555.25;5098051;28;20033;-70
2023/01/10 05:08:46;;;;;;;24.47;4.20;;;;;;;14.39;46.75;101570.09;5093185;28;20177;-69
2023/01/10 05:11:12;;;;;;;26.93;3.37;;;;;;;14.37;47.35;101566.63;5112004;28;20530;-70
2023/01/10 05:13:38;;;;;;;31.77;4.33;;;;;;;13.83;48.71;101575.19;5094175;28;20053;-70
2023/01/10 05:16:04;;;;;;;29.17;4.67;;;;;;;13.88;49.11;101567.28;5093927;28;20041;-70
2023/01/10 05:18:30;;;;;;;21.80;3.50;;;;;;;15.23;45.52;101568.81;5093268;28;20055;-69
2023/01/10 05:21:03;;;;;;;32.13;4.37;;;;;;;15.95;43.74;101561.34;5110860;28;20418;-70
2023/01/10 05:23:28;;;;;;;18.90;3.20;;;;;;;15.96;43.13;101572.75;5093204;28;20096;-70
2023/01/10 05:25:54;;;;;;;25.23;3.20;;;;;;;16.15;42.95;101573.22;5093207;28;20032;-70
2023/01/10 05:28:19;;;;;;;22.17;4.20;;;;;;;16.36;41.95;101574.50;5092013;28;20040;-70
2023/01/10 05:30:45;;;;;;;19.83;3.63;;;;;;;16.46;41.91;101583.97;5117254;27;20132;-70
2023/01/10 05:33:10;;;;;;;19.97;2.80;;;;;;;16.40;42.17;101584.97;5093352;28;20085;-70
2023/01/10 05:35:36;;;;;;;15.00;3.07;;;;;;;15.82;42.95;101591.47;5110613;28;20102;-70
2023/01/10 05:38:01;;;;;;;21.70;3.67;;;;;;;16.10;42.64;101589.13;5091788;28;20034;-70
2023/01/10 05:40:26;;;;;;;30.03;3.83;;;;;;;15.84;42.94;101593.19;5093403;28;20038;-69
2023/01/10 05:42:52;;;;;;;24.40;3.60;;;;;;;15.89;42.82;101588.66;5092320;28;20023;-70
2023/01/10 05:45:17;;;;;;;23.97;4.60;;;;;;;15.93;42.54;101594.75;5097946;27;20023;-70
2023/01/10 05:47:43;;;;;;;19.77;3.33;;;;;;;15.82;43.29;101586.19;5108831;28;20368;-69
2023/01/10 05:50:10;;;;;;;23.80;3.83;;;;;;;15.73;43.17;101596.00;5092086;28;20438;-70
2023/01/10 05:52:35;;;;;;;25.97;3.43;;;;;;;15.06;44.85;101604.19;5092704;28;20028;-70
2023/01/10 05:55:01;;;;;;;24.87;3.40;;;;;;;15.41;44.32;101607.13;5092909;28;20493;-69
2023/01/10 05:57:26;;;;;;;30.27;3.17;;;;;;;15.10;45.03;101608.53;5092375;28;20023;-70
2023/01/10 05:59:52;;;;;;;22.33;3.63;;;;;;;15.40;44.41;101614.16;5108259;27;20053;-69
2023/01/10 06:02:17;;;;;;;28.03;4.63;;;;;;;14.88;45.86;101622.94;5109990;27;20074;-70
2023/01/10 06:04:43;;;;;;;33.77;3.63;;;;;;;14.99;45.83;101622.75;5090431;28;20022;-69
2023/01/10 06:07:08;;;;;;;25.67;3.23;;;;;;;15.05;45.67;101631.41;5093173;28;20027;-70
2023/01/10 06:09:34;;;;;;;36.23;5.03;;;;;;;15.00;45.84;101628.00;5110685;28;20066;-70
2023/01/10 06:11:59;;;;;;;23.47;4.00;;;;;;;15.14;46.01;101627.78;5092343;28;20035;-70
2023/01/10 06:14:24;;;;;;;35.80;3.50;;;;;;;14.79;46.33;101620.44;5105963;27;20113;-70
2023/01/10 06:16:50;;;;;;;29.07;4.47;;;;;;;15.33;45.52;101612.53;5092664;28;20051;-70
2023/01/10 06:19:15;;;;;;;28.87;3.13;;;;;;;16.06;43.54;101621.72;5108472;28;20024;-70
2023/01/10 06:21:41;;;;;;;22.77;3.43;;;;;;;15.64;44.19;101616.38;5093135;28;20092;-69
2023/01/10 06:24:06;;;;;;;22.67;4.40;;;;;;;15.91;43.84;101601.84;5091231;28;20038;-70
2023/01/10 06:26:32;;;;;;;24.07;3.50;;;;;;;15.67;44.29;101611.91;5090215;28;20122;-70
2023/01/10 06:28:58;;;;;;;23.60;3.00;;;;;;;16.11;43.64;101622.50;5080251;28;20055;-70
2023/01/10 06:31:24;;;;;;;35.20;3.73;;;;;;;15.06;45.74;101627.91;5091743;28;20028;-70
2023/01/10 06:33:50;;;;;;;24.93;4.13;;;;;;;15.19;46.51;101632.97;5092241;28;20038;-70
2023/01/10 06:36:15;;;;;;;34.17;3.63;;;;;;;15.31;46.21;101630.13;5083030;28;20031;-70
2023/01/10 06:38:41;;;;;;;29.30;4.37;;;;;;;14.48;48.57;101636.63;5091160;28;20015;-71
2023/01/10 06:41:12;;;;;;;21.63;3.17;;;;;;;14.43;48.38;101645.44;5092440;28;20065;-70
2023/01/10 06:43:46;;;;;;;29.13;3.47;;;;;;;15.48;46.90;101648.25;5090973;28;20463;-70
2023/01/10 06:46:16;;;;;;;33.27;5.07;;;;;;;15.35;47.01;101637.06;5100112;27;20488;-71
2023/01/10 06:48:44;;;;;;;25.20;4.53;;;;;;;15.22;46.71;101640.81;5096028;28;20031;-70
2023/01/10 06:51:10;;;;;;;22.20;3.30;;;;;;;15.13;46.90;101648.88;5093486;28;20031;-70
2023/01/10 06:53:35;;;;;;;32.90;4.00;;;;;;;14.51;47.93;101655.88;5109963;28;20189;-70
2023/01/10 06:56:01;;;;;;;38.47;3.90;;;;;;;14.30;49.18;101659.66;5092563;28;20119;-70
2023/01/10 06:58:27;;;;;;;33.00;3.97;;;;;;;14.33;48.16;101672.75;5090462;28;20276;-70
2023/01/10 07:00:53;;;;;;;27.30;4.10;;;;;;;15.10;47.36;101674.34;5082527;28;20388;-70
2023/01/10 07:03:18;;;;;;;31.27;4.40;;;;;;;14.58;48.22;101686.47;5091379;28;20036;-70
2023/01/10 07:05:44;;;;;;;27.67;3.60;;;;;;;14.01;48.49;101689.78;5090899;28;20474;-70
2023/01/10 07:08:09;;;;;;;25.83;4.07;;;;;;;12.86;52.27;101691.56;5108805;28;20039;-70
2023/01/10 07:10:35;;;;;;;35.27;5.63;;;;;;;13.99;50.88;101696.81;5112671;28;20031;-70
2023/01/10 07:13:00;;;;;;;24.53;3.27;;;;;;;14.04;50.54;101700.25;5112612;28;20110;-70
2023/01/10 07:15:27;;;;;;;29.77;5.57;;;;;;;13.30;52.07;101705.25;5111821;28;20406;-70
2023/01/10 07:17:54;;;;;;;37.93;4.37;;;;;;;14.39;49.28;101693.72;5093176;28;20063;-70
2023/01/10 07:20:20;;;;;;;24.93;3.70;;;;;;;13.52;50.68;101706.00;5095584;28;20088;-70
2023/01/10 07:23:01;;;;;;;29.10;3.80;;;;;;;13.88;50.30;101715.31;5115093;28;20020;-70
2023/01/10 07:25:27;;;;;;;21.40;3.80;;;;;;;12.65;53.15;101714.41;5114060;28;20391;-70
2023/01/10 07:27:54;;;;;;;28.87;3.40;;;;;;;13.61;52.03;101715.56;5109914;28;20106;-70
2023/01/10 07:30:20;;;;;;;43.37;6.50;;;;;;;13.97;50.74;101714.34;5112714;28;20069;-70
2023/01/10 07:32:54;;;;;;;44.90;5.60;;;;;;;13.31;52.74;101723.66;5113884;27;20058;-70
2023/01/10 07:35:20;;;;;;;32.83;5.00;;;;;;;13.02;53.29;101727.34;5108822;28;20031;-70
2023/01/10 07:37:46;;;;;;;41.73;4.53;;;;;;;14.08;49.95;101716.84;5085887;28;20148;-70
2023/01/10 07:40:11;;;;;;;24.33;3.67;;;;;;;14.79;47.35;101715.19;5092275;28;20432;-70
2023/01/10 07:42:37;;;;;;;29.80;3.87;;;;;;;14.53;49.24;101709.31;5099125;28;20030;-71
2023/01/10 07:45:03;;;;;;;37.37;4.13;;;;;;;13.39;50.42;101732.38;5099081;28;20138;-70
2023/01/10 07:47:28;;;;;;;25.60;4.40;;;;;;;13.49;51.62;101733.16;5094125;28;20032;-70
2023/01/10 07:49:54;;;;;;;31.53;4.87;;;;;;;14.31;49.76;101735.00;5091201;28;20502;-70
2023/01/10 07:52:19;;;;;;;29.03;4.47;;;;;;;14.14;50.22;101726.47;5091019;28;20092;-70
2023/01/10 07:54:44;;;;;;;33.63;4.40;;;;;;;14.34;48.67;101721.84;5109466;27;20031;-70
2023/01/10 07:57:10;;;;;;;34.80;4.17;;;;;;;14.39;48.67;101727.91;5107832;28;20114;-70
2023/01/10 07:59:35;;;;;;;31.73;4.27;;;;;;;13.56;50.72;101744.50;5099710;27;20035;-70
2023/01/10 08:02:01;;;;;;;25.57;4.13;;;;;;;14.03;49.21;101739.72;5097237;28;20123;-71
2023/01/10 08:04:26;;;;;;;27.13;4.60;;;;;;;13.78;50.67;101744.31;5092866;28;20085;-71
2023/01/10 08:06:53;;;;;;;27.07;3.87;;;;;;;13.80;50.86;101742.56;5088235;28;20028;-71
2023/01/10 08:09:19;;;;;;;21.77;4.33;;;;;;;14.89;47.81;101737.84;5093695;28;20032;-71
2023/01/10 08:11:44;;;;;;;25.10;4.30;;;;;;;13.84;49.05;101750.38;5090452;28;20035;-71
2023/01/10 08:14:09;;;;;;;28.50;4.50;;;;;;;13.63;50.10;101742.69;5085400;28;20032;-70
2023/01/10 08:16:35;;;;;;;32.27;5.53;;;;;;;13.00;52.44;101750.09;5072183;28;20428;-70
2023/01/10 08:19:01;;;;;;;30.63;4.40;;;;;;;13.71;50.25;101744.38;5088061;28;20028;-71
2023/01/10 08:21:26;;;;;;;34.67;8.17;;;;;;;13.62;50.59;101739.19;5089662;28;20762;-71
2023/01/10 08:23:53;;;;;;;23.60;5.63;;;;;;;13.87;50.31;101738.97;5090486;28;20036;-71
2023/01/10 08:26:22;;;;;;;28.43;5.20;;;;;;;13.53;50.10;101739.25;5092323;28;20039;-71
2023/01/10 08:28:48;;;;;;;27.43;5.67;;;;;;;12.49;54.24;101741.59;5092345;28;20405;-70
2023/01/10 08:31:14;;;;;;;27.80;5.30;;;;;;;13.58;50.76;101738.31;5086070;28;20020;-70
2023/01/10 08:33:40;;;;;;;34.50;5.10;;;;;;;14.30;48.88;101733.28;5091903;28;20062;-71
2023/01/10 08:36:13;;;;;;;29.60;5.30;;;;;;;14.30;48.15;101738.56;5098446;28;20451;-71
2023/01/10 08:38:38;;;;;;;;;;;;;;;12.94;51.67;101737.00;5113306;28;20082;-70
2023/01/10 08:41:04;;;;;;;30.83;5.47;;;;;;;13.58;50.81;101738.31;5102440;28;19919;-70
2023/01/10 08:43:29;;;;;;;28.80;4.80;;;;;;;13.24;51.89;101737.69;5090249;28;20023;-71
2023/01/10 08:45:54;;;;;;;23.60;5.50;;;;;;;12.99;51.75;101748.31;5090979;28;20060;-69
2023/01/10 08:48:20;;;;;;;31.07;5.20;;;;;;;13.13;50.75;101739.50;5091050;28;20058;-69
2023/01/10 08:50:45;;;;;;;41.33;6.40;;;;;;;13.18;52.46;101727.22;5090610;28;20383;-69
2023/01/10 08:53:12;;;;;;;30.03;4.73;;;;;;;13.58;50.14;101724.34;5086266;28;20035;-69
2023/01/10 08:55:37;;;;;;;33.80;5.50;;;;;;;13.61;50.05;101716.41;5096238;28;20031;-69
2023/01/10 08:58:03;;;;;;;33.70;6.43;;;;;;;14.46;48.14;101714.69;5111964;28;20024;-69
2023/01/10 09:00:28;;;;;;;28.87;4.93;;;;;;;13.98;49.10;101716.06;5092437;28;20036;-72
2023/01/10 09:02:54;;;;;;;24.20;5.13;;;;;;;13.51;50.39;101725.28;5078105;28;20135;-71
2023/01/10 09:05:19;;;;;;;33.53;5.43;;;;;;;13.61;49.99;101713.78;5088711;28;20483;-72
2023/01/10 09:07:45;;;;;;;34.80;5.83;;;;;;;13.76;49.44;101719.81;5089450;28;20042;-69
2023/01/10 09:10:11;;;;;;;27.10;6.17;;;;;;;14.04;49.08;101717.78;5091579;28;20031;-69
2023/01/10 09:12:55;;;;;;;28.20;4.50;;;;;;;13.55;50.34;101719.13;5089066;28;20028;-69
2023/01/10 09:15:29;;;;;;;27.57;4.97;;;;;;;13.57;50.43;101719.97;5089158;28;20025;-71
2023/01/10 09:17:59;;;;;;;33.90;5.37;;;;;;;14.01;49.21;101721.31;5090724;28;20032;-71
2023/01/10 09:20:26;;;;;;;30.17;5.13;;;;;;;13.25;50.66;101715.81;5088629;28;20455;-71
2023/01/10 09:22:53;;;;;;;29.67;5.40;;;;;;;13.37;50.66;101712.25;5092140;28;20106;-72
2023/01/10 09:25:18;;;;;;;40.90;5.67;;;;;;;13.32;50.87;101717.50;5086891;28;20024;-72
2023/01/10 09:27:43;;;;;;;25.60;5.33;;;;;;;12.37;53.05;101717.13;5089045;28;20046;-69
2023/01/10 09:30:10;;;;;;;26.83;6.70;;;;;;;13.92;50.34;101710.91;5090645;28;20023;-69
2023/01/10 09:32:36;;;;;;;21.20;4.47;;;;;;;13.34;51.33;101718.38;5089881;28;20032;-71
2023/01/10 09:35:01;;;;;;;25.40;4.13;;;;;;;13.16;51.10;101718.47;5088041;28;20107;-68
2023/01/10 09:37:27;;;;;;;42.70;6.43;;;;;;;12.81;52.44;101709.09;5090818;28;20032;-72
2023/01/10 09:39:52;;;;;;;41.13;5.87;;;;;;;13.24;50.81;101711.44;5091248;28;20488;-72
2023/01/10 09:43:15;;;;;;;31.97;4.27;;;;;;;12.09;54.43;101720.69;5088821;28;20031;-72
2023/01/10 09:46:04;;;;;;;25.13;4.18;;;;;;;12.71;52.69;101717.00;5017303;28;20169;-72
2023/01/10 09:48:51;;;;;;;28.33;4.00;;;;;;;11.91;54.19;101717.22;5007326;28;20568;-72
2023/01/10 09:51:35;;;;;;;24.53;4.43;;;;;;;12.26;53.98;101718.06;5063475;28;20189;-70
2023/01/10 09:54:05;;;;;;;27.47;4.50;;;;;;;11.76;54.78;101711.97;5087050;28;20035;-69
2023/01/10 09:56:32;;;;;;;24.97;5.07;;;;;;;12.89;51.63;101707.28;5080686;28;20376;-69
2023/01/10 09:58:59;;;;;;;33.33;4.53;;;;;;;13.24;50.56;101706.16;5106686;28;20046;-71
2023/01/10 10:01:37;;;;;;;32.97;5.37;;;;;;;12.67;51.81;101710.00;5097373;28;20051;-72
2023/01/10 10:04:38;;;;;;;28.77;4.90;;;;;;;13.00;51.11;101700.22;5092384;28;20031;-72
2023/01/10 10:07:12;;;;;;;25.23;5.37;;;;;;;12.67;51.83;101704.78;5080551;28;20486;-69
2023/01/10 10:09:38;;;;;;;22.70;4.70;;;;;;;13.19;50.56;101708.84;5087637;28;20058;-69
2023/01/10 10:12:22;;;;;;;27.23;3.93;;;;;;;13.10;50.80;101697.53;5130234;27;20427;-70
2023/01/10 10:15:26;;;;;;;24.87;4.10;;;;;;;13.06;50.38;101704.53;5091298;27;20046;-70
2023/01/10 10:18:11;;;;;;;29.97;5.33;;;;;;;13.24;50.09;101700.94;5117864;27;20118;-69
2023/01/10 10:21:01;;;;;;;23.87;4.80;;;;;;;12.81;51.57;101693.34;5092344;28;20020;-70
2023/01/10 10:24:01;;;;;;;25.50;4.47;;;;;;;13.34;50.42;101699.09;5072319;28;20028;-70
2023/01/10 10:26:33;;;;;;;26.40;5.03;;;;;;;12.90;51.35;101695.91;5109533;28;20035;-70
2023/01/10 10:29:36;;;;;;;28.27;5.00;;;;;;;12.77;51.94;101689.00;5110183;28;20107;-70
2023/01/10 10:32:13;;;;;;;25.02;4.60;;;;;;;12.75;51.26;101685.50;5071080;28;20440;-70
2023/01/10 10:34:46;;;;;;;24.50;4.53;;;;;;;12.07;52.80;101680.53;5090271;28;20063;-70
2023/01/10 10:37:24;;;;;;;21.33;4.30;;;;;;;13.06;50.54;101671.31;5103360;27;20093;-72
2023/01/10 10:40:01;;;;;;;29.70;4.70;;;;;;;13.12;51.15;101677.38;5098780;28;20497;-71
2023/01/10 10:42:38;;;;;;;24.77;4.40;;;;;;;13.14;50.95;101683.50;5109282;28;20076;-70
2023/01/10 10:45:06;;;;;;;32.57;4.67;;;;;;;12.84;50.80;101656.59;5083006;28;20028;-71
2023/01/10 10:47:37;;;;;;;29.83;6.17;;;;;;;13.84;48.86;101660.19;5089923;28;20292;-70
2023/01/10 10:50:13;;;;;;;38.03;6.37;;;;;;;13.61;49.21;101648.13;5091778;28;20031;-71
2023/01/10 10:52:40;;;;;;;23.63;4.23;;;;;;;13.93;48.47;101644.31;5095587;28;20146;-70
2023/01/10 10:55:11;;;;;;;22.97;4.37;;;;;;;13.56;49.57;101639.44;5096164;28;20161;-70
2023/01/10 10:57:37;;;;;;;24.23;4.53;;;;;;;14.35;47.30;101622.78;5087410;28;20502;-70
2023/01/10 11:00:06;;;;;;;23.73;6.50;;;;;;;13.95;48.63;101631.16;5090278;28;20386;-71
2023/01/10 11:02:40;;;;;;;26.23;4.93;;;;;;;14.18;48.41;101623.00;5092052;28;20526;-71
2023/01/10 11:05:15;;;;;;;26.23;4.53;;;;;;;13.41;51.55;101637.81;5092992;28;20020;-71
2023/01/10 11:07:40;;;;;;;28.53;3.90;;;;;;;12.45;52.47;101629.72;5121349;27;20087;-71
2023/01/10 11:10:33;;;;;;;20.93;3.80;;;;;;;12.82;51.75;101629.50;5092932;28;20019;-71
2023/01/10 11:12:59;;;;;;;;;;;;;;;12.83;52.29;101625.97;5092517;28;20055;-71
2023/01/10 11:15:46;;;;;;;30.23;4.00;;;;;;;13.33;50.66;101611.59;5110338;28;20379;-71
2023/01/10 11:18:16;;;;;;;24.77;3.80;;;;;;;13.52;50.90;101616.72;5091791;28;20405;-71
2023/01/10 11:20:56;;;;;;;25.50;4.00;;;;;;;13.12;52.15;101609.16;5091395;28;20051;-71
2023/01/10 11:23:35;;;;;;;22.37;3.83;;;;;;;13.69;49.42;101601.63;5091813;28;20024;-72
2023/01/10 11:26:02;;;;;;;20.47;3.60;;;;;;;14.08;48.72;101588.94;5107522;28;20102;-71
2023/01/10 11:28:30;;;;;;;29.07;4.23;;;;;;;14.05;48.44;101591.59;5088355;28;20355;-71
2023/01/10 11:30:57;;;;;;;21.43;3.17;;;;;;;14.05;49.34;101581.09;5086485;28;20054;-71
2023/01/10 11:33:30;;;;;;;21.90;4.33;;;;;;;14.04;49.04;101586.34;5093530;28;20524;-71
2023/01/10 11:36:05;;;;;;;17.38;3.80;;;;;;;14.04;48.55;101574.09;5083498;28;20035;-71
2023/01/10 11:38:31;;;;;;;30.13;4.53;;;;;;;13.97;49.12;101582.94;5118414;28;20533;-71
2023/01/10 11:41:02;;;;;;;17.27;3.63;;;;;;;13.48;49.95;101588.75;5091134;28;20031;-71